Terminal Aerodrome Forecast
Issued by NWS Charleston, WV

Current Version | Previous Version | Text Only | Print | Product List | Glossary Off
Versions: 1 2 3 4 5 6 7 8 9 10 11 12 13 14 15 16 17 18 19 20 21 22 23 24 25 26 27 28 29 30 31 32 33 34 35

978
FTUS41 KRLX 230540
TAFPKB
TAF
KPKB 230540Z 2306/2406 VRB03KT 1 1/2SM BR OVC002
     FM231100 00000KT 3SM BR OVC015
     FM231300 17008KT 5SM BR BKN025
     FM231500 17008KT P6SM BKN030
     FM231600 19008KT 5SM -RA BKN015
     FM232000 21009G16KT P6SM SCT025
     FM232200 22009KT P6SM OVC250
     FM240000 28006KT P6SM BKN015
     FM240400 29003KT 5SM BR OVC012=

USA.gov is the U.S. government's official web portal to all federal, state and local government web resources and services.